GMMB

Ben Slimane Airport

Ben Slimane, Morocco
METAR GMMB 171600Z 35012KT CAVOK 27/17 Q1015 NOSIG
Observed Flight Rules
Aug-17 @ 16:00 UTC (52 minutes ago) Visual Flight Rules
Wind Visibility Clouds
350° at 12 knots 10,000+ meters
  • Clear skies
Temperatures Readings
Current 27°C / 81°F
Dewpoint 17°C / 63°F
Humidity 54%
Altimeter 29.97" Hg
Pressure 1015 hPa
Elevation 191
METAR GMMB 171600Z 35012KT CAVOK 27/17 Q1015 NOSIG
Observed Flight Rules
Aug-17 @ 16:00 UTC
(52 minutes ago)
VFR
Wind Visibility
350° at 12 knots 10,000+ meters
Clouds
  • Clear skies
Temperature Dewpoint
27°C / 81°F 17°C / 63°F
Humidity Altimeter Pressure
54% 29.97" Hg 1015 hPa